createdAt,value
2022-08-26T00:01:46.660Z,19.27
2022-08-26T00:04:13.821Z,14.40
2022-08-26T00:06:42.611Z,16.38
2022-08-26T00:09:16.070Z,23.25
2022-08-26T00:11:44.134Z,10.63
2022-08-26T00:14:13.698Z,20.17
2022-08-26T00:16:47.314Z,19.65
2022-08-26T00:19:17.901Z,12.75
2022-08-26T00:21:46.009Z,19.42
2022-08-26T00:24:13.255Z,15.18
2022-08-26T00:26:41.368Z,18.20
2022-08-26T00:29:08.676Z,17.15
2022-08-26T00:31:36.698Z,18.37
2022-08-26T00:34:04.471Z,10.83
2022-08-26T00:36:31.999Z,18.65
2022-08-26T00:38:59.057Z,15.75
2022-08-26T00:41:25.949Z,15.05
2022-08-26T00:43:53.371Z,13.93
2022-08-26T00:46:28.850Z,15.20
2022-08-26T00:49:04.236Z,9.43
2022-08-26T00:51:48.649Z,7.82
2022-08-26T00:54:19.915Z,10.93
2022-08-26T00:57:16.470Z,9.25
2022-08-26T00:59:46.848Z,8.13
2022-08-26T01:02:20.042Z,10.20
2022-08-26T01:04:56.264Z,7.32
2022-08-26T01:07:26.386Z,6.07
2022-08-26T01:09:55.095Z,7.40
2022-08-26T01:12:22.849Z,5.45
2022-08-26T01:14:50.067Z,7.03
2022-08-26T01:17:17.323Z,5.20
2022-08-26T01:19:49.078Z,7.72
2022-08-26T01:22:53.159Z,7.75
2022-08-26T01:25:21.137Z,4.22
2022-08-26T01:27:49.058Z,6.25
2022-08-26T01:30:17.831Z,4.80
2022-08-26T01:32:46.031Z,7.20
2022-08-26T01:35:12.900Z,5.20
2022-08-26T01:37:40.597Z,5.28
2022-08-26T01:40:13.825Z,9.00
2022-08-26T01:42:42.067Z,9.73
2022-08-26T01:45:16.510Z,7.90
2022-08-26T01:47:43.547Z,9.88
2022-08-26T01:50:28.272Z,5.43
2022-08-26T01:53:00.835Z,9.30
2022-08-26T01:55:32.824Z,8.60
2022-08-26T01:58:05.470Z,5.50
2022-08-26T02:00:34.195Z,9.82
2022-08-26T02:03:17.939Z,6.87
2022-08-26T02:05:48.826Z,7.33
2022-08-26T02:08:22.717Z,14.95
2022-08-26T02:10:51.858Z,5.65
2022-08-26T02:13:23.021Z,9.87
2022-08-26T02:15:53.160Z,8.70
2022-08-26T02:18:20.534Z,7.30
2022-08-26T02:20:47.463Z,6.78
2022-08-26T02:23:18.588Z,8.63
2022-08-26T02:26:08.821Z,9.45
2022-08-26T02:28:58.282Z,9.68
2022-08-26T02:31:25.403Z,12.20
2022-08-26T02:33:52.231Z,8.80
2022-08-26T02:36:28.465Z,5.85
2022-08-26T02:38:55.640Z,12.93
2022-08-26T02:41:23.031Z,6.93
2022-08-26T02:43:50.146Z,8.82
2022-08-26T02:46:27.931Z,8.20
2022-08-26T02:48:58.514Z,10.95
2022-08-26T02:51:25.389Z,10.32
2022-08-26T02:53:52.250Z,6.80
2022-08-26T02:56:19.420Z,8.45
2022-08-26T02:58:46.241Z,7.78
2022-08-26T03:01:29.885Z,14.88
2022-08-26T03:03:57.626Z,7.40
2022-08-26T03:06:24.799Z,5.40
2022-08-26T03:08:52.739Z,5.93
2022-08-26T03:11:20.037Z,7.32
2022-08-26T03:13:46.887Z,5.63
2022-08-26T03:16:14.368Z,4.88
2022-08-26T03:18:41.964Z,4.35
2022-08-26T03:21:12.055Z,7.75
2022-08-26T03:23:40.112Z,10.52
2022-08-26T03:26:07.730Z,10.25
2022-08-26T03:28:58.179Z,9.55
2022-08-26T03:31:25.438Z,7.75
2022-08-26T03:33:52.872Z,3.55
2022-08-26T03:36:22.107Z,6.40
2022-08-26T03:38:49.101Z,4.97
2022-08-26T03:41:16.099Z,5.53
2022-08-26T03:43:43.631Z,4.27
2022-08-26T03:46:12.446Z,4.45
2022-08-26T03:48:39.991Z,8.07
2022-08-26T03:51:13.944Z,4.43
2022-08-26T03:53:45.759Z,2.83
2022-08-26T03:56:13.074Z,2.17
2022-08-26T03:58:42.829Z,5.20
2022-08-26T04:01:11.007Z,3.00
2022-08-26T04:03:57.061Z,2.40
2022-08-26T04:06:38.613Z,3.40
2022-08-26T04:09:14.898Z,2.58
2022-08-26T04:11:44.143Z,2.05
2022-08-26T04:14:17.643Z,2.95
2022-08-26T04:16:47.823Z,2.95
2022-08-26T04:19:15.835Z,3.20
2022-08-26T04:21:43.704Z,2.93
2022-08-26T04:24:12.998Z,1.98
2022-08-26T04:26:42.825Z,2.50
2022-08-26T04:29:18.089Z,3.30
2022-08-26T04:31:47.984Z,1.55
2022-08-26T04:34:15.586Z,2.25
2022-08-26T04:36:43.085Z,2.13
2022-08-26T04:39:12.397Z,3.05
2022-08-26T04:41:40.016Z,1.73
2022-08-26T04:44:07.627Z,3.10
2022-08-26T04:46:35.364Z,1.80
2022-08-26T04:49:08.484Z,2.45
2022-08-26T04:51:36.863Z,2.97
2022-08-26T04:54:04.386Z,2.00
2022-08-26T04:56:37.220Z,2.43
2022-08-26T04:59:07.908Z,2.42
2022-08-26T05:01:49.867Z,2.22
2022-08-26T05:04:19.092Z,2.03
2022-08-26T05:06:49.454Z,3.13
2022-08-26T05:09:18.495Z,2.72
2022-08-26T05:11:48.411Z,2.80
2022-08-26T05:14:19.659Z,2.53
2022-08-26T05:16:47.980Z,2.15
2022-08-26T05:19:18.894Z,2.45
2022-08-26T05:21:47.661Z,2.03
2022-08-26T05:24:14.999Z,2.75
2022-08-26T05:26:42.452Z,2.38
2022-08-26T05:29:11.776Z,4.22
2022-08-26T05:31:38.689Z,2.75
2022-08-26T05:34:05.907Z,3.83
2022-08-26T05:36:35.147Z,4.30
2022-08-26T05:39:05.281Z,2.38
2022-08-26T05:41:36.187Z,4.95
2022-08-26T05:44:06.835Z,4.63
2022-08-26T05:46:35.056Z,1.90
2022-08-26T05:49:02.647Z,3.53
2022-08-26T05:51:30.565Z,3.38
2022-08-26T05:54:00.743Z,5.22
2022-08-26T05:56:28.619Z,3.70
2022-08-26T05:58:58.345Z,3.13
2022-08-26T06:01:28.046Z,4.10
2022-08-26T06:04:01.732Z,7.13
2022-08-26T06:06:31.827Z,3.90
2022-08-26T06:09:00.381Z,4.75
2022-08-26T06:11:32.288Z,5.40
2022-08-26T06:14:03.792Z,5.55
2022-08-26T06:16:34.640Z,4.82
2022-08-26T06:19:03.234Z,6.18
2022-08-26T06:21:32.855Z,5.90
2022-08-26T06:24:27.215Z,4.82
2022-08-26T06:27:02.808Z,5.15
2022-08-26T06:29:33.482Z,7.15
2022-08-26T06:32:01.207Z,8.73
2022-08-26T06:34:30.433Z,5.93
2022-08-26T06:37:02.143Z,6.53
2022-08-26T06:39:30.704Z,7.28
2022-08-26T06:42:02.710Z,4.78
2022-08-26T06:44:34.110Z,6.28
2022-08-26T06:47:00.980Z,6.63
2022-08-26T06:49:27.901Z,6.63
2022-08-26T06:52:00.152Z,18.50
2022-08-26T06:54:30.122Z,17.27
2022-08-26T06:56:57.881Z,9.57
2022-08-26T06:59:25.636Z,11.93
2022-08-26T07:01:52.610Z,17.38
2022-08-26T07:04:23.382Z,12.32
2022-08-26T07:06:52.851Z,7.65
2022-08-26T07:09:21.922Z,10.07
2022-08-26T07:11:49.668Z,10.23
2022-08-26T07:14:21.550Z,10.13
2022-08-26T07:16:50.479Z,7.97
2022-08-26T07:19:30.066Z,9.27
2022-08-26T07:22:02.115Z,7.47
2022-08-26T07:24:29.394Z,14.75
2022-08-26T07:27:00.604Z,10.63
2022-08-26T07:29:28.583Z,8.50
2022-08-26T07:31:56.330Z,7.43
2022-08-26T07:34:24.621Z,6.65
2022-08-26T07:36:53.438Z,15.13
2022-08-26T07:39:22.271Z,11.77
2022-08-26T07:41:49.188Z,12.23
2022-08-26T07:44:16.672Z,9.00
2022-08-26T07:46:44.406Z,10.85
2022-08-26T07:49:20.256Z,12.70
2022-08-26T07:51:47.343Z,13.43
2022-08-26T07:54:14.117Z,11.47
2022-08-26T07:56:40.874Z,10.10
2022-08-26T07:59:13.826Z,15.93
2022-08-26T08:01:44.967Z,20.73
2022-08-26T08:04:14.387Z,10.30
2022-08-26T08:06:41.540Z,21.63
2022-08-26T08:09:13.256Z,12.27
2022-08-26T08:11:41.355Z,11.05
2022-08-26T08:14:08.504Z,10.80
2022-08-26T08:16:45.982Z,19.50
2022-08-26T08:19:14.739Z,12.85
2022-08-26T08:21:42.789Z,12.70
2022-08-26T08:24:10.006Z,12.33
2022-08-26T08:26:37.423Z,15.13
2022-08-26T08:29:04.406Z,13.13
2022-08-26T08:34:19.877Z,20.77
2022-08-26T08:36:48.847Z,9.90
2022-08-26T08:39:17.322Z,18.50
2022-08-26T08:42:12.750Z,14.45
2022-08-26T08:44:44.459Z,14.07
2022-08-26T08:47:42.786Z,13.40
2022-08-26T08:50:35.123Z,12.70
2022-08-26T08:53:11.822Z,19.98
2022-08-26T08:55:51.390Z,12.85
2022-08-26T08:58:21.962Z,16.98
2022-08-26T09:01:00.184Z,13.05
2022-08-26T09:03:57.288Z,11.38
2022-08-26T09:06:25.245Z,13.13
2022-08-26T09:08:56.262Z,10.07
2022-08-26T09:11:23.420Z,18.30
2022-08-26T09:13:53.347Z,10.57
2022-08-26T09:16:23.927Z,11.85
2022-08-26T09:19:14.147Z,12.10
2022-08-26T09:21:41.160Z,15.27
2022-08-26T09:24:11.257Z,15.63
2022-08-26T09:26:45.549Z,7.25
2022-08-26T09:29:31.744Z,12.98
2022-08-26T09:32:23.974Z,6.95
2022-08-26T09:35:00.255Z,12.45
2022-08-26T09:37:36.687Z,9.85
2022-08-26T09:40:31.120Z,10.00
2022-08-26T09:43:22.347Z,6.18
2022-08-26T09:46:20.854Z,11.23
2022-08-26T09:48:48.089Z,7.05
2022-08-26T09:51:23.050Z,10.95
2022-08-26T09:53:53.331Z,11.45
2022-08-26T09:56:28.945Z,12.98
2022-08-26T09:58:57.627Z,14.32
2022-08-26T10:01:35.250Z,15.35
2022-08-26T10:04:22.498Z,19.27
2022-08-26T10:07:09.750Z,11.25
2022-08-26T10:09:40.669Z,14.00
2022-08-26T10:12:15.758Z,16.00
2022-08-26T10:14:48.428Z,13.60
2022-08-26T10:17:26.582Z,18.13
2022-08-26T10:19:59.627Z,11.57
2022-08-26T10:22:39.382Z,15.85
2022-08-26T10:25:12.296Z,26.20
2022-08-26T10:28:20.755Z,11.17
2022-08-26T10:30:56.038Z,13.95
2022-08-26T10:33:23.433Z,17.08
2022-08-26T10:35:56.426Z,19.75
2022-08-26T10:38:34.213Z,19.20
2022-08-26T10:41:00.963Z,21.58
2022-08-26T10:43:42.679Z,20.13
2022-08-26T10:46:16.237Z,18.87
2022-08-26T10:48:49.578Z,22.55
2022-08-26T10:51:38.485Z,27.02
2022-08-26T10:54:09.502Z,17.35
2022-08-26T10:56:53.659Z,25.90
2022-08-26T10:59:43.721Z,41.17
2022-08-26T11:02:22.823Z,25.05
2022-08-26T11:05:02.827Z,32.17
2022-08-26T11:07:39.064Z,25.23
2022-08-26T11:10:06.663Z,38.47
2022-08-26T11:12:36.289Z,56.65
2022-08-26T11:15:13.973Z,68.40
2022-08-26T11:17:45.194Z,59.30
2022-08-26T11:20:29.900Z,53.72
2022-08-26T11:23:22.616Z,55.63
2022-08-26T11:25:56.994Z,40.08
2022-08-26T11:28:35.886Z,44.60
2022-08-26T11:31:11.915Z,28.25
2022-08-26T11:33:52.670Z,42.63
2022-08-26T11:36:37.310Z,31.88
2022-08-26T11:39:36.511Z,32.70
2022-08-26T11:42:28.427Z,35.83
2022-08-26T11:44:58.238Z,27.35
2022-08-26T11:47:29.434Z,32.93
2022-08-26T11:50:13.575Z,39.58
2022-08-26T11:52:40.937Z,43.13
2022-08-26T11:55:14.696Z,43.75
2022-08-26T11:57:49.066Z,58.67
2022-08-26T12:00:23.123Z,51.42
2022-08-26T12:02:52.656Z,48.40
2022-08-26T12:05:30.998Z,50.22
2022-08-26T12:08:06.267Z,37.75
2022-08-26T12:10:34.414Z,54.03
2022-08-26T12:13:03.359Z,47.53
2022-08-26T12:15:32.362Z,47.42
2022-08-26T12:18:17.778Z,38.00
2022-08-26T12:20:48.443Z,48.85
2022-08-26T12:23:34.083Z,46.42
2022-08-26T12:26:10.370Z,57.88
2022-08-26T12:28:46.403Z,46.03
2022-08-26T12:31:21.724Z,42.80
2022-08-26T12:33:49.470Z,44.53
2022-08-26T12:36:39.098Z,57.88
2022-08-26T12:39:12.894Z,48.33
2022-08-26T12:41:41.668Z,58.25
2022-08-26T12:44:08.658Z,52.67
2022-08-26T12:46:36.059Z,55.25
2022-08-26T12:49:03.921Z,56.47
2022-08-26T12:51:33.287Z,66.07
2022-08-26T12:54:00.343Z,62.95
2022-08-26T12:56:36.608Z,75.88
2022-08-26T12:59:25.543Z,45.92
2022-08-26T13:01:53.067Z,61.60
2022-08-26T13:04:38.839Z,54.47
2022-08-26T13:07:18.404Z,57.58
2022-08-26T13:09:45.178Z,42.03
2022-08-26T13:12:24.159Z,50.15
2022-08-26T13:14:50.975Z,38.08
2022-08-26T13:17:17.843Z,35.47
2022-08-26T13:19:44.661Z,34.95
2022-08-26T13:22:12.910Z,44.00
2022-08-26T13:24:44.129Z,42.57
2022-08-26T13:27:14.299Z,34.15
2022-08-26T13:29:41.959Z,47.92
2022-08-26T13:32:09.661Z,40.17
2022-08-26T13:34:38.132Z,46.37
2022-08-26T13:37:05.916Z,52.43
2022-08-26T13:39:33.103Z,62.50
2022-08-26T13:42:00.155Z,60.78
2022-08-26T13:44:27.774Z,55.38
2022-08-26T13:46:55.003Z,54.77
2022-08-26T13:49:22.574Z,48.20
2022-08-26T13:51:49.872Z,44.42
2022-08-26T13:54:16.687Z,66.68
2022-08-26T13:56:44.048Z,64.72
2022-08-26T13:59:11.352Z,51.67
2022-08-26T14:01:39.932Z,47.53
2022-08-26T14:04:07.342Z,56.75
2022-08-26T14:06:34.227Z,55.10
2022-08-26T14:09:00.968Z,47.40
2022-08-26T14:11:30.149Z,43.90
2022-08-26T14:14:16.747Z,73.07
2022-08-26T14:16:51.329Z,69.82
2022-08-26T14:19:29.580Z,63.70
2022-08-26T14:21:56.542Z,65.70
2022-08-26T14:24:23.673Z,68.38
2022-08-26T14:26:50.483Z,57.40
2022-08-26T14:29:17.376Z,59.08
2022-08-26T14:31:44.601Z,59.13
2022-08-26T14:34:13.339Z,64.80
2022-08-26T14:36:40.072Z,36.70
2022-08-26T14:39:10.134Z,55.07
2022-08-26T14:41:45.006Z,50.05
2022-08-26T14:44:14.870Z,37.45
2022-08-26T14:46:49.638Z,47.95
2022-08-26T14:49:18.851Z,46.87
2022-08-26T14:51:46.114Z,48.15
2022-08-26T14:54:14.664Z,50.85
2022-08-26T14:56:58.518Z,52.67
2022-08-26T14:59:26.800Z,52.05
2022-08-26T15:01:54.768Z,50.47
2022-08-26T15:04:23.026Z,51.33
2022-08-26T15:06:51.205Z,40.77
2022-08-26T15:09:18.075Z,51.80
2022-08-26T15:11:47.678Z,30.70
2022-08-26T15:14:19.582Z,29.08
2022-08-26T15:16:49.410Z,32.90
2022-08-26T15:19:16.899Z,31.75
2022-08-26T15:21:45.651Z,36.20
2022-08-26T15:24:12.983Z,37.13
2022-08-26T15:26:40.497Z,36.85
2022-08-26T15:29:07.417Z,38.10
2022-08-26T15:31:34.860Z,39.90
2022-08-26T15:34:05.759Z,34.73
2022-08-26T15:36:33.704Z,40.72
2022-08-26T15:39:01.322Z,27.23
2022-08-26T15:41:29.756Z,28.92
2022-08-26T15:43:57.487Z,32.50
2022-08-26T15:46:25.410Z,32.45
2022-08-26T15:48:52.589Z,32.55
2022-08-26T15:51:24.334Z,29.83
2022-08-26T15:53:54.231Z,37.78
2022-08-26T15:56:25.788Z,29.65
2022-08-26T15:58:54.956Z,27.50
2022-08-26T16:01:27.122Z,21.42
2022-08-26T16:03:56.262Z,23.85
2022-08-26T16:06:27.332Z,28.23
2022-08-26T16:08:56.039Z,23.42
2022-08-26T16:11:23.895Z,21.92
2022-08-26T16:13:50.857Z,19.58
2022-08-26T16:16:19.717Z,21.65
2022-08-26T16:18:47.018Z,29.02
2022-08-26T16:21:22.980Z,29.33
2022-08-26T16:23:51.527Z,22.73
2022-08-26T16:26:22.340Z,30.13
2022-08-26T16:28:49.845Z,28.23
2022-08-26T16:31:17.411Z,23.17
2022-08-26T16:33:44.582Z,24.85
2022-08-26T16:36:11.783Z,21.77
2022-08-26T16:38:39.589Z,17.77
2022-08-26T16:41:07.167Z,28.40
2022-08-26T16:43:34.831Z,22.73
2022-08-26T16:46:02.020Z,36.35
2022-08-26T16:48:28.836Z,28.00
2022-08-26T16:50:56.686Z,25.50
2022-08-26T16:53:24.539Z,20.55
2022-08-26T16:55:52.404Z,23.52
2022-08-26T16:58:21.958Z,18.50
2022-08-26T17:00:49.890Z,25.73
2022-08-26T17:03:17.396Z,23.20
2022-08-26T17:05:44.753Z,22.53
2022-08-26T17:08:13.169Z,20.73
2022-08-26T17:13:09.959Z,30.63
2022-08-26T17:15:37.880Z,31.35
2022-08-26T17:18:05.097Z,24.42
2022-08-26T17:20:32.377Z,20.42
2022-08-26T17:22:59.338Z,27.50
2022-08-26T17:25:30.031Z,18.77
2022-08-26T17:27:59.121Z,19.00
2022-08-26T17:30:26.111Z,16.73
2022-08-26T17:32:54.426Z,18.42
2022-08-26T17:35:21.707Z,16.60
2022-08-26T17:37:48.856Z,16.25
2022-08-26T17:40:22.751Z,6.53
2022-08-26T17:42:51.654Z,6.80
2022-08-26T17:47:48.430Z,7.35
2022-08-26T17:50:18.174Z,6.45
2022-08-26T17:52:46.654Z,5.80
2022-08-26T17:55:15.344Z,5.53
2022-08-26T17:57:44.430Z,11.82
2022-08-26T18:00:26.278Z,13.67
2022-08-26T18:02:54.805Z,8.83
2022-08-26T18:05:22.568Z,11.85
2022-08-26T18:07:51.435Z,8.97
2022-08-26T18:10:20.006Z,9.05
2022-08-26T18:12:46.968Z,11.43
2022-08-26T18:15:16.100Z,7.95
2022-08-26T18:17:44.126Z,10.23
2022-08-26T18:20:15.687Z,12.73
2022-08-26T18:22:43.270Z,8.43
2022-08-26T18:25:10.337Z,16.52
2022-08-26T18:27:38.145Z,11.32
2022-08-26T18:30:16.799Z,12.93
2022-08-26T18:32:44.226Z,11.77
2022-08-26T18:35:12.043Z,13.95
2022-08-26T18:37:39.655Z,8.90
2022-08-26T18:40:09.085Z,9.93
2022-08-26T18:42:36.515Z,11.32
2022-08-26T18:45:05.222Z,13.32
2022-08-26T18:47:33.139Z,9.93
2022-08-26T18:50:01.222Z,22.33
2022-08-26T18:52:28.556Z,23.08
2022-08-26T18:54:55.469Z,21.27
2022-08-26T18:57:23.466Z,26.35
2022-08-26T18:59:50.220Z,22.95
2022-08-26T19:02:17.317Z,26.65
2022-08-26T19:04:44.562Z,25.47
2022-08-26T19:07:11.371Z,20.50
2022-08-26T19:09:39.202Z,20.75
2022-08-26T19:12:06.271Z,19.63
2022-08-26T19:14:35.976Z,25.15
2022-08-26T19:17:03.656Z,21.55
2022-08-26T19:19:31.603Z,21.65
2022-08-26T19:21:58.575Z,15.32
2022-08-26T19:24:27.282Z,17.25
2022-08-26T19:26:59.305Z,29.83
2022-08-26T19:29:29.301Z,17.95
2022-08-26T19:31:56.514Z,20.13
2022-08-26T19:34:24.037Z,26.45
2022-08-26T19:36:53.135Z,27.00
2022-08-26T19:39:21.140Z,18.80
2022-08-26T19:41:48.556Z,23.48
2022-08-26T19:44:37.913Z,19.75
2022-08-26T19:47:07.454Z,25.93
2022-08-26T19:49:34.859Z,23.02
2022-08-26T19:52:02.895Z,16.88
2022-08-26T19:54:30.199Z,26.83
2022-08-26T19:56:57.878Z,23.80
2022-08-26T19:59:24.657Z,26.05
2022-08-26T20:02:00.782Z,17.08
2022-08-26T20:04:30.203Z,25.80
2022-08-26T20:06:57.745Z,21.10
2022-08-26T20:09:29.544Z,34.83
2022-08-26T20:11:56.840Z,31.23
2022-08-26T20:14:24.703Z,20.77
2022-08-26T20:16:51.584Z,22.53
2022-08-26T20:19:37.788Z,28.42
2022-08-26T20:22:05.505Z,38.33
2022-08-26T20:24:32.913Z,39.30
2022-08-26T20:27:03.311Z,38.55
2022-08-26T20:29:32.849Z,37.78
2022-08-26T20:31:59.723Z,17.67
2022-08-26T20:34:27.828Z,25.90
2022-08-26T20:36:55.286Z,21.60
2022-08-26T20:39:22.169Z,36.33
2022-08-26T20:41:49.470Z,21.88
2022-08-26T20:44:17.506Z,31.40
2022-08-26T20:46:45.015Z,28.23
2022-08-26T20:49:13.301Z,21.67
2022-08-26T20:51:43.065Z,30.35
2022-08-26T20:54:12.237Z,24.00
2022-08-26T20:56:39.984Z,29.92
2022-08-26T20:59:07.944Z,40.80
2022-08-26T21:01:36.886Z,37.03
2022-08-26T21:04:12.366Z,30.38
2022-08-26T21:06:39.486Z,25.77
2022-08-26T21:09:10.401Z,37.08
2022-08-26T21:11:38.158Z,41.22
2022-08-26T21:14:13.412Z,31.75
2022-08-26T21:16:43.880Z,31.43
2022-08-26T21:19:13.930Z,40.60
2022-08-26T21:21:41.552Z,53.20
2022-08-26T21:24:09.133Z,75.13
2022-08-26T21:26:36.306Z,83.70
2022-08-26T21:29:03.968Z,63.87
2022-08-26T21:31:31.952Z,55.88
2022-08-26T21:33:59.455Z,65.13
2022-08-26T21:36:26.606Z,57.70
2022-08-26T21:38:56.856Z,66.60
2022-08-26T21:41:26.010Z,58.72
2022-08-26T21:43:55.537Z,68.25
2022-08-26T21:46:24.549Z,82.00
2022-08-26T21:48:59.631Z,62.35
2022-08-26T21:51:30.347Z,43.40
2022-08-26T21:53:58.770Z,41.37
2022-08-26T21:56:27.755Z,36.35
2022-08-26T21:58:56.067Z,41.45
2022-08-26T22:01:25.410Z,44.67
2022-08-26T22:03:53.007Z,43.92
2022-08-26T22:06:23.924Z,47.67
2022-08-26T22:08:51.259Z,51.07
2022-08-26T22:11:18.989Z,39.85
2022-08-26T22:13:46.843Z,43.33
2022-08-26T22:16:14.302Z,34.77
2022-08-26T22:18:43.715Z,41.30
2022-08-26T22:21:14.983Z,40.53
2022-08-26T22:23:43.360Z,35.05
2022-08-26T22:26:14.264Z,36.40
2022-08-26T22:28:41.123Z,40.95
2022-08-26T22:31:11.279Z,48.47
2022-08-26T22:33:43.199Z,39.67
2022-08-26T22:36:22.182Z,52.47
2022-08-26T22:38:50.553Z,40.63
2022-08-26T22:41:18.346Z,41.55
2022-08-26T22:43:45.932Z,30.55
2022-08-26T22:46:31.035Z,38.92
2022-08-26T22:48:57.902Z,28.77
2022-08-26T22:51:24.845Z,51.78
2022-08-26T22:53:52.607Z,31.05
2022-08-26T22:56:21.120Z,21.77
2022-08-26T22:58:48.215Z,27.88
2022-08-26T23:01:16.810Z,39.17
2022-08-26T23:03:44.425Z,33.60
2022-08-26T23:06:11.326Z,31.42
2022-08-26T23:08:40.301Z,33.95
2022-08-26T23:11:09.270Z,32.07
2022-08-26T23:13:36.454Z,33.15
2022-08-26T23:16:06.555Z,42.30
2022-08-26T23:18:33.358Z,33.25
2022-08-26T23:21:00.582Z,46.13
2022-08-26T23:23:27.630Z,42.40
2022-08-26T23:25:56.458Z,43.00
2022-08-26T23:28:23.636Z,35.93
2022-08-26T23:30:52.355Z,37.53
2022-08-26T23:33:19.266Z,36.92
2022-08-26T23:35:46.210Z,34.33
2022-08-26T23:38:14.252Z,34.80
2022-08-26T23:40:41.857Z,27.08
2022-08-26T23:43:11.415Z,45.85
2022-08-26T23:45:38.848Z,41.97
2022-08-26T23:48:06.654Z,35.05
2022-08-26T23:50:53.143Z,28.20
2022-08-26T23:53:22.277Z,32.28
2022-08-26T23:55:51.330Z,42.60
2022-08-26T23:58:19.727Z,29.05
